Time;durP1;ratioP1;P1;durP2;ratioP2;P2;SDS_P1;SDS_P2;PMS_P1;PMS_P2;Temp;Humidity;BMP_temperature;BMP_pressure;BME280_temperature;BME280_humidity;BME280_pressure;Samples;Min_cycle;Max_cycle;Signal;HPM_P1;HPM_P2
2022/05/06 00:00:51;;;;;;;34.10;25.67;;;;;;;11.39;77.46;102439.56;6161148;23;20339;-84
2022/05/06 00:03:16;;;;;;;33.37;24.77;;;;;;;11.37;77.67;102433.47;6161295;23;20002;-84
2022/05/06 00:05:42;;;;;;;33.97;25.52;;;;;;;11.32;77.63;102432.84;6165389;23;20245;-83
2022/05/06 00:08:07;;;;;;;33.92;24.73;;;;;;;11.32;77.46;102438.19;6164147;23;20006;-83
2022/05/06 00:10:32;;;;;;;37.50;24.92;;;;;;;11.26;77.71;102432.25;6162242;23;20109;-84
2022/05/06 00:12:58;;;;;;;34.55;23.90;;;;;;;11.24;78.04;102442.13;6162061;23;20005;-83
2022/05/06 00:15:23;;;;;;;34.20;24.50;;;;;;;11.25;77.77;102438.50;6161480;23;20006;-83
2022/05/06 00:17:48;;;;;;;35.10;24.58;;;;;;;11.19;77.85;102441.50;6160672;23;20008;-83
2022/05/06 00:20:14;;;;;;;34.85;25.58;;;;;;;11.14;78.08;102440.03;6160974;23;20005;-82
2022/05/06 00:22:39;;;;;;;35.47;26.13;;;;;;;11.07;78.39;102436.84;6160915;23;20010;-82
2022/05/06 00:25:04;;;;;;;31.60;24.37;;;;;;;11.04;78.60;102444.97;6160305;23;20006;-82
2022/05/06 00:27:30;;;;;;;33.30;26.25;;;;;;;11.05;78.90;102441.38;6134086;23;20303;-83
2022/05/06 00:29:55;;;;;;;33.60;25.40;;;;;;;11.05;78.59;102442.22;6134665;23;20017;-83
2022/05/06 00:32:20;;;;;;;34.58;25.33;;;;;;;11.00;78.41;102446.09;6160724;23;20366;-83
2022/05/06 00:34:45;;;;;;;35.63;26.40;;;;;;;10.99;78.69;102439.91;6161320;23;20009;-83
2022/05/06 00:37:11;;;;;;;33.78;25.10;;;;;;;10.95;78.74;102446.31;6167915;23;20025;-83
2022/05/06 00:39:36;;;;;;;35.33;26.33;;;;;;;10.90;78.85;102445.72;6177217;23;20002;-83
2022/05/06 00:42:04;;;;;;;36.95;25.83;;;;;;;10.83;79.04;102449.63;6177546;23;20012;-83
2022/05/06 00:44:29;;;;;;;33.22;25.23;;;;;;;10.80;79.20;102444.47;6175776;23;20009;-83
2022/05/06 00:46:56;;;;;;;32.92;24.05;;;;;;;10.80;79.18;102444.47;6170012;23;20494;-83
2022/05/06 00:49:22;;;;;;;36.50;25.63;;;;;;;10.74;79.31;102438.53;6163368;23;20013;-82
2022/05/06 00:51:51;;;;;;;35.28;26.27;;;;;;;10.74;79.07;102441.19;6134400;23;20160;-83
2022/05/06 00:54:16;;;;;;;38.70;25.83;;;;;;;10.67;79.38;102434.47;6160331;23;20428;-83
2022/05/06 00:56:42;;;;;;;37.45;25.67;;;;;;;10.68;79.57;102438.84;6159055;23;20036;-84
2022/05/06 00:59:07;;;;;;;33.22;25.40;;;;;;;10.66;79.78;102442.53;6158709;23;20009;-84
2022/05/06 01:01:35;;;;;;;38.22;27.48;;;;;;;10.62;79.94;102443.63;6158043;23;20006;-83
2022/05/06 01:04:06;;;;;;;35.67;25.00;;;;;;;10.58;80.25;102445.56;6158403;23;20008;-83
2022/05/06 01:06:32;;;;;;;37.60;26.98;;;;;;;10.54;80.31;102444.00;6159600;23;20106;-84
2022/05/06 01:08:57;;;;;;;36.17;26.90;;;;;;;10.58;80.55;102450.03;6158026;23;20077;-84
2022/05/06 01:11:22;;;;;;;36.20;25.70;;;;;;;10.58;80.04;102450.88;6158488;23;20069;-84
2022/05/06 01:13:53;;;;;;;33.10;25.75;;;;;;;10.51;79.65;102445.03;6158583;23;20077;-84
2022/05/06 01:16:19;;;;;;;37.80;25.27;;;;;;;10.48;80.15;102442.53;6158028;23;20012;-84
2022/05/06 01:18:51;;;;;;;36.78;26.58;;;;;;;10.45;79.92;102447.97;6158625;23;20002;-84
2022/05/06 01:21:26;;;;;;;38.15;26.63;;;;;;;10.45;79.45;102440.00;6157643;23;20002;-84
2022/05/06 01:23:51;;;;;;;34.33;24.63;;;;;;;10.43;79.44;102441.91;6157485;23;20194;-84
2022/05/06 01:26:16;;;;;;;37.83;24.58;;;;;;;10.43;79.48;102444.56;6157542;23;20009;-84
2022/05/06 01:28:44;;;;;;;33.80;25.65;;;;;;;10.36;79.89;102453.78;6131338;23;20014;-84
2022/05/06 01:31:09;;;;;;;36.75;25.85;;;;;;;10.29;80.37;102445.22;6157598;23;20430;-84
2022/05/06 01:33:36;;;;;;;37.60;27.05;;;;;;;10.31;80.23;102451.31;6158245;23;20005;-84
2022/05/06 01:36:08;;;;;;;34.78;24.85;;;;;;;10.30;80.52;102459.34;6158294;23;20317;-84
2022/05/06 01:38:42;;;;;;;33.70;24.88;;;;;;;10.26;80.81;102453.34;6158064;23;20073;-84
2022/05/06 01:41:13;;;;;;;37.25;25.35;;;;;;;10.26;80.77;102456.00;6157919;23;20009;-84
2022/05/06 01:43:43;;;;;;;38.78;27.30;;;;;;;10.23;81.75;102457.94;6158099;23;20064;-84
2022/05/06 01:46:13;;;;;;;39.72;27.90;;;;;;;10.22;82.14;102456.22;6158151;23;20006;-84
2022/05/06 01:48:41;;;;;;;43.00;27.80;;;;;;;10.19;82.29;102450.13;6159593;23;20027;-84
2022/05/06 01:51:13;;;;;;;39.22;28.25;;;;;;;10.19;82.58;102449.25;6159041;23;20057;-84
2022/05/06 01:53:38;;;;;;;41.55;27.35;;;;;;;10.18;82.50;102453.69;6159333;23;20005;-84
2022/05/06 01:56:04;;;;;;;37.53;27.15;;;;;;;10.16;82.63;102455.56;6158862;23;20009;-84
2022/05/06 01:58:29;;;;;;;39.13;26.83;;;;;;;10.17;82.61;102454.66;6158817;23;20080;-84
2022/05/06 02:00:54;;;;;;;38.25;26.98;;;;;;;10.17;82.60;102449.34;6159211;23;20002;-84
2022/05/06 02:06:03;;;;;;;38.63;26.50;;;;;;;10.13;82.73;102458.38;6159220;23;20453;-84
2022/05/06 02:08:29;;;;;;;36.85;27.63;;;;;;;10.12;82.84;102455.78;6159895;23;20092;-84
2022/05/06 02:10:56;;;;;;;38.00;26.92;;;;;;;10.12;83.05;102451.34;6159108;23;20454;-84
2022/05/06 02:13:21;;;;;;;37.88;28.08;;;;;;;10.11;83.48;102457.59;6132315;23;20447;-84
2022/05/06 02:15:47;;;;;;;38.70;28.25;;;;;;;10.12;83.64;102451.34;6158905;23;20038;-84
2022/05/06 02:18:12;;;;;;;37.53;27.67;;;;;;;10.11;83.55;102446.97;6159490;23;20009;-84
2022/05/06 02:20:37;;;;;;;37.72;27.45;;;;;;;10.10;83.19;102453.22;6131435;23;20495;-84
2022/05/06 02:23:03;;;;;;;41.13;28.48;;;;;;;10.09;84.04;102450.63;6157386;23;20053;-84
2022/05/06 02:25:28;;;;;;;34.22;26.65;;;;;;;10.09;83.79;102451.50;6157070;23;20013;-84
2022/05/06 02:27:54;;;;;;;38.63;28.48;;;;;;;10.12;83.91;102459.31;6157156;23;20442;-84
2022/05/06 02:33:13;;;;;;;32.60;25.55;;;;;;;10.15;82.93;102453.84;6157959;23;20032;-84
2022/05/06 02:35:40;;;;;;;32.50;24.67;;;;;;;10.10;83.39;102455.88;6159038;23;20132;-84
2022/05/06 02:38:08;;;;;;;31.95;24.15;;;;;;;10.10;82.85;102458.53;6165182;23;20017;-85
2022/05/06 02:40:34;;;;;;;32.55;24.88;;;;;;;10.06;82.88;102456.97;6180307;23;20065;-85
2022/05/06 02:43:00;;;;;;;29.80;23.38;;;;;;;10.06;83.34;102462.28;6179593;23;20012;-84
2022/05/06 02:45:25;;;;;;;33.75;24.88;;;;;;;10.03;83.48;102462.44;6177442;23;20005;-85
2022/05/06 02:47:51;;;;;;;30.83;24.17;;;;;;;10.04;83.17;102466.78;6163393;23;20005;-85
2022/05/06 02:50:16;;;;;;;31.85;24.80;;;;;;;10.03;83.49;102470.38;6163829;23;20012;-84
2022/05/06 02:52:42;;;;;;;31.73;24.98;;;;;;;10.06;83.25;102466.72;6164267;23;20074;-84
2022/05/06 02:55:07;;;;;;;30.17;23.87;;;;;;;10.05;82.71;102468.50;6159764;23;20006;-84
2022/05/06 02:57:32;;;;;;;34.05;25.45;;;;;;;10.02;83.48;102466.00;6158782;23;20241;-83
2022/05/06 02:59:58;;;;;;;43.70;26.25;;;;;;;9.99;83.70;102460.84;6158881;23;20377;-83
2022/05/06 03:02:23;;;;;;;32.85;24.63;;;;;;;9.99;83.65;102452.88;6165291;23;20012;-84
2022/05/06 03:04:49;;;;;;;32.72;24.58;;;;;;;9.97;84.09;102465.38;6168932;23;20009;-84
2022/05/06 03:07:17;;;;;;;43.55;23.02;;;;;;;9.92;83.81;102462.06;6161583;23;20093;-83
2022/05/06 03:09:42;;;;;;;30.17;23.77;;;;;;;9.94;83.91;102463.72;6161895;23;20034;-84
2022/05/06 03:12:08;;;;;;;29.05;23.55;;;;;;;9.93;83.54;102458.50;6135687;23;20006;-84
2022/05/06 03:14:34;;;;;;;29.83;23.45;;;;;;;9.95;83.67;102462.78;6162003;23;20002;-84
2022/05/06 03:16:59;;;;;;;31.90;23.73;;;;;;;9.95;83.73;102459.28;6161060;23;20076;-83
2022/05/06 03:19:24;;;;;;;33.55;21.15;;;;;;;9.92;84.04;102456.75;6133621;23;20141;-84
2022/05/06 03:21:52;;;;;;;31.38;22.25;;;;;;;9.89;84.12;102457.78;6160079;23;20009;-83
2022/05/06 03:24:18;;;;;;;28.70;22.67;;;;;;;9.94;84.09;102457.53;6159835;23;20033;-83
2022/05/06 03:26:43;;;;;;;35.67;22.00;;;;;;;9.89;84.23;102456.91;6159248;23;20002;-83
2022/05/06 03:29:09;;;;;;;28.60;20.60;;;;;;;9.94;83.73;102462.84;6159947;23;20379;-83
2022/05/06 03:31:35;;;;;;;26.23;19.92;;;;;;;9.94;83.89;102454.88;6160182;23;20013;-83
2022/05/06 03:34:02;;;;;;;26.08;20.25;;;;;;;9.91;83.64;102457.69;6159074;23;20009;-84
2022/05/06 03:36:27;;;;;;;25.90;19.70;;;;;;;9.98;83.33;102459.13;6159253;23;20411;-83
2022/05/06 03:38:52;;;;;;;32.30;20.27;;;;;;;9.91;83.51;102455.03;6158714;23;20001;-83
2022/05/06 03:41:18;;;;;;;28.07;20.57;;;;;;;9.88;84.17;102455.22;6158818;23;20010;-84
2022/05/06 03:43:43;;;;;;;29.63;19.88;;;;;;;9.87;84.23;102462.28;6159010;23;20252;-84
2022/05/06 03:46:09;;;;;;;25.90;19.85;;;;;;;9.87;84.17;102458.78;6157814;23;20005;-83
2022/05/06 03:48:35;;;;;;;30.08;20.15;;;;;;;9.82;83.86;102456.34;6156349;23;20032;-83
2022/05/06 03:53:44;;;;;;;26.83;20.25;;;;;;;9.84;84.11;102456.28;6157152;23;20048;-83
2022/05/06 03:56:10;;;;;;;28.92;21.65;;;;;;;9.83;84.43;102458.06;6129934;23;20005;-83
2022/05/06 03:58:35;;;;;;;29.27;20.55;;;;;;;9.83;84.82;102460.72;6156501;23;20005;-84
2022/05/06 04:01:03;;;;;;;26.20;20.52;;;;;;;9.85;84.56;102468.63;6157544;23;20009;-83
2022/05/06 04:03:28;;;;;;;24.15;20.10;;;;;;;9.87;84.52;102464.09;6159413;23;20001;-83
2022/05/06 04:05:54;;;;;;;25.45;20.30;;;;;;;9.87;84.60;102462.28;6159516;23;20037;-83
2022/05/06 04:08:19;;;;;;;28.40;20.13;;;;;;;9.83;84.99;102463.38;6133442;23;20020;-82
2022/05/06 04:10:45;;;;;;;27.52;21.88;;;;;;;9.86;84.76;102460.59;6136397;23;20005;-83
2022/05/06 04:13:10;;;;;;;28.40;22.08;;;;;;;9.85;85.09;102465.97;6161548;23;20081;-83
2022/05/06 04:15:36;;;;;;;26.92;21.58;;;;;;;9.85;84.91;102466.81;6159229;23;20013;-83
2022/05/06 04:18:01;;;;;;;35.78;21.73;;;;;;;9.77;85.23;102472.47;6159905;23;20009;-83
2022/05/06 04:23:29;;;;;;;44.25;20.27;;;;;;;9.75;84.85;102462.88;6161001;23;20071;-84
2022/05/06 04:25:55;;;;;;;23.98;18.00;;;;;;;9.76;84.19;102469.91;6164038;23;20020;-83
2022/05/06 04:28:21;;;;;;;22.15;18.45;;;;;;;9.75;84.72;102473.50;6166443;23;20001;-84
2022/05/06 04:30:46;;;;;;;23.98;19.17;;;;;;;9.75;84.86;102474.34;6166704;23;20028;-84
2022/05/06 04:33:11;;;;;;;26.95;19.77;;;;;;;9.73;85.21;102472.72;6161459;23;20443;-83
2022/05/06 04:35:37;;;;;;;24.43;17.87;;;;;;;9.76;84.74;102478.72;6161275;23;20010;-84
2022/05/06 04:38:02;;;;;;;26.50;20.17;;;;;;;9.72;85.78;102473.63;6160452;23;20376;-84
2022/05/06 04:40:27;;;;;;;25.20;19.77;;;;;;;9.73;85.15;102478.88;6161259;23;20339;-84
2022/05/06 04:42:53;;;;;;;30.25;20.30;;;;;;;9.75;85.58;102478.81;6161756;23;20005;-84
2022/05/06 04:45:18;;;;;;;26.30;21.58;;;;;;;9.74;85.72;102483.25;6167275;23;20028;-84
2022/05/06 04:47:43;;;;;;;24.10;19.13;;;;;;;9.76;85.48;102483.19;6172168;23;20061;-84
2022/05/06 04:50:09;;;;;;;25.65;19.58;;;;;;;9.75;85.57;102486.75;6181437;23;20005;-84
2022/05/06 04:52:34;;;;;;;33.50;21.00;;;;;;;9.75;85.99;102492.06;6154797;23;20010;-83
2022/05/06 04:55:00;;;;;;;26.02;20.42;;;;;;;9.79;86.13;102490.97;6164734;23;20391;-84
2022/05/06 04:57:25;;;;;;;37.50;20.92;;;;;;;9.75;86.56;102497.38;6159802;23;20331;-85
2022/05/06 04:59:50;;;;;;;28.95;20.67;;;;;;;9.78;85.80;102491.94;6167645;23;20315;-86
2022/05/06 05:02:17;;;;;;;27.85;20.05;;;;;;;9.76;86.14;102502.63;6166427;23;20001;-86
2022/05/06 05:04:43;;;;;;;27.38;19.05;;;;;;;9.80;86.11;102493.56;6159587;23;20025;-86
2022/05/06 05:07:09;;;;;;;25.60;20.20;;;;;;;9.81;86.30;102497.94;6159226;23;20014;-87
2022/05/06 05:09:34;;;;;;;34.22;19.52;;;;;;;9.86;86.26;102505.69;6132370;23;20010;-87
2022/05/06 05:11:59;;;;;;;28.92;20.13;;;;;;;9.88;86.24;102502.97;6157180;23;20331;-87
2022/05/06 05:14:25;;;;;;;25.00;20.67;;;;;;;9.91;86.28;102514.31;6157896;23;20005;-87
2022/05/06 05:16:50;;;;;;;50.50;21.00;;;;;;;9.92;86.48;102518.66;6158103;23;20433;-87
2022/05/06 05:19:17;;;;;;;28.60;22.08;;;;;;;9.93;86.72;102516.88;6159462;23;20018;-85
2022/05/06 05:21:42;;;;;;;31.20;23.77;;;;;;;9.94;87.01;102518.59;6138833;23;20387;-85
2022/05/06 05:24:08;;;;;;;34.08;25.58;;;;;;;9.95;86.61;102526.47;6162881;23;20076;-86
2022/05/06 05:26:34;;;;;;;35.45;23.75;;;;;;;9.95;87.75;102528.28;6133641;23;20327;-85
2022/05/06 05:29:04;;;;;;;30.25;23.52;;;;;;;9.99;87.57;102519.22;6134867;23;20041;-86
2022/05/06 05:31:30;;;;;;;38.85;22.70;;;;;;;10.04;87.79;102514.56;6132714;23;20001;-85
2022/05/06 05:33:55;;;;;;;32.50;23.42;;;;;;;10.07;87.49;102509.13;6132521;23;20028;-85
2022/05/06 05:36:20;;;;;;;36.75;25.25;;;;;;;10.10;87.84;102513.44;6166577;23;20068;-85
2022/05/06 05:38:46;;;;;;;38.58;23.90;;;;;;;10.13;87.93;102513.28;6158942;23;20044;-85
2022/05/06 05:41:11;;;;;;;34.78;24.98;;;;;;;10.17;87.92;102517.50;6158478;23;20040;-85
2022/05/06 05:49:05;;;;;;;34.70;24.98;;;;;;;10.30;88.34;102523.94;6177857;23;20049;-86
2022/05/06 05:51:32;;;;;;;35.63;25.67;;;;;;;10.34;88.45;102522.03;6172831;23;20017;-83
2022/05/06 05:53:57;;;;;;;38.53;25.02;;;;;;;10.36;88.33;102526.34;6181106;23;19993;-82
2022/05/06 05:56:22;;;;;;;48.63;24.92;;;;;;;10.38;87.63;102518.28;6183058;23;20000;-82
2022/05/06 05:58:51;;;;;;;38.65;27.10;;;;;;;10.40;88.23;102521.72;6183173;23;20028;-80
2022/05/06 06:01:17;;;;;;;37.38;27.05;;;;;;;10.46;87.29;102526.75;6184067;23;20001;-80
2022/05/06 06:03:42;;;;;;;50.47;28.80;;;;;;;10.43;88.04;102528.72;6184056;23;19986;-81
2022/05/06 06:06:08;;;;;;;41.10;27.40;;;;;;;10.48;87.97;102524.03;6182400;23;19997;-81
2022/05/06 06:08:33;;;;;;;42.10;29.13;;;;;;;10.53;88.55;102525.50;6156933;23;20002;-81
2022/05/06 06:11:01;;;;;;;62.60;29.90;;;;;;;10.52;88.48;102515.84;6183316;23;19991;-81
2022/05/06 06:13:30;;;;;;;46.15;28.98;;;;;;;10.59;88.04;102515.50;6156939;23;20028;-81
2022/05/06 06:16:04;;;;;;;40.85;28.80;;;;;;;10.61;88.30;102518.94;6183316;23;19997;-82
2022/05/06 06:18:29;;;;;;;47.42;31.00;;;;;;;10.66;88.23;102515.13;6182521;23;20025;-82
2022/05/06 06:20:55;;;;;;;47.65;29.83;;;;;;;10.65;88.52;102509.91;6182937;23;20049;-83
2022/05/06 06:23:20;;;;;;;49.40;31.83;;;;;;;10.70;88.85;102511.38;6158142;23;20034;-81
2022/05/06 06:25:46;;;;;;;40.30;27.83;;;;;;;10.72;87.92;102513.94;6182090;23;20002;-83
2022/05/06 06:28:12;;;;;;;39.30;27.15;;;;;;;10.72;87.25;102506.88;6179916;23;20045;-82
2022/05/06 06:30:40;;;;;;;43.38;28.67;;;;;;;10.76;87.78;102514.66;6178176;23;20001;-84
2022/05/06 06:33:07;;;;;;;44.03;30.80;;;;;;;10.78;87.85;102505.69;6181159;23;20057;-84
2022/05/06 06:35:32;;;;;;;39.13;29.00;;;;;;;10.85;87.24;102519.50;6179886;23;20009;-83
2022/05/06 06:37:58;;;;;;;43.00;29.63;;;;;;;10.91;87.68;102514.75;6183471;23;20012;-82
2022/05/06 06:40:24;;;;;;;42.10;29.75;;;;;;;10.95;87.20;102518.09;6184587;23;20000;-81
2022/05/06 06:42:49;;;;;;;41.42;29.75;;;;;;;11.02;86.98;102516.84;6184712;23;19993;-80
2022/05/06 06:45:14;;;;;;;39.78;28.90;;;;;;;11.08;87.03;102513.88;6184541;23;20013;-81
2022/05/06 06:47:40;;;;;;;40.78;28.52;;;;;;;11.13;87.32;102518.94;6184436;23;20008;-81
2022/05/06 06:50:06;;;;;;;38.08;27.63;;;;;;;11.19;86.67;102520.41;6184574;23;19993;-80
2022/05/06 06:52:32;;;;;;;36.80;27.48;;;;;;;11.24;86.15;102524.56;6183731;23;20017;-81
2022/05/06 06:54:57;;;;;;;36.10;25.92;;;;;;;11.27;85.33;102528.84;6183825;23;19994;-81
2022/05/06 06:57:23;;;;;;;37.47;27.10;;;;;;;11.30;85.37;102534.03;6184475;23;19998;-81
2022/05/06 06:59:48;;;;;;;38.67;27.48;;;;;;;11.32;86.40;102539.25;6184615;23;20013;-81
2022/05/06 07:02:16;;;;;;;38.08;27.58;;;;;;;11.40;85.60;102540.56;6184678;23;21263;-82
2022/05/06 07:04:41;;;;;;;34.53;26.13;;;;;;;11.39;85.63;102544.19;6184856;23;20020;-81
2022/05/06 07:12:34;;;;;;;37.63;25.77;;;;;;;11.53;85.24;102550.59;6184092;23;20004;-80
2022/05/06 07:15:01;;;;;;;40.03;27.35;;;;;;;11.54;85.22;102553.16;6179301;23;20006;-82
2022/05/06 07:17:26;;;;;;;35.25;26.05;;;;;;;11.63;84.97;102557.13;6182465;23;20121;-79
2022/05/06 07:19:52;;;;;;;35.55;25.95;;;;;;;11.70;84.84;102541.69;6182734;23;20045;-81
2022/05/06 07:22:17;;;;;;;37.67;26.20;;;;;;;11.71;84.75;102546.94;6182321;23;20012;-81
2022/05/06 07:24:45;;;;;;;38.88;27.50;;;;;;;11.77;85.23;102548.38;6184252;23;19997;-81
2022/05/06 07:27:11;;;;;;;38.17;25.23;;;;;;;11.82;83.84;102563.19;6184271;23;19998;-81
2022/05/06 07:29:36;;;;;;;35.78;25.80;;;;;;;11.87;83.60;102564.72;6183871;23;20024;-83
2022/05/06 07:32:03;;;;;;;38.10;27.02;;;;;;;11.87;83.60;102570.03;6150151;23;20009;-82
2022/05/06 07:34:29;;;;;;;34.35;26.45;;;;;;;11.87;83.14;102562.91;6177082;23;20010;-83
2022/05/06 07:36:54;;;;;;;37.50;27.73;;;;;;;11.89;84.38;102578.81;6157309;23;20032;-82
2022/05/06 07:39:19;;;;;;;40.15;28.55;;;;;;;11.99;83.29;102570.28;6183557;23;20036;-82
2022/05/06 07:41:50;;;;;;;38.38;28.10;;;;;;;12.06;83.12;102576.13;6182839;23;20022;-82
2022/05/06 07:44:16;;;;;;;38.45;26.73;;;;;;;12.06;83.74;102584.13;6158532;23;19997;-81
2022/05/06 07:46:41;;;;;;;38.10;26.77;;;;;;;12.09;83.00;102583.06;6158802;23;20019;-82
2022/05/06 07:49:07;;;;;;;38.95;26.77;;;;;;;12.13;83.05;102580.16;6183862;23;19989;-82
2022/05/06 07:51:32;;;;;;;38.25;27.13;;;;;;;12.15;83.25;102591.56;6182782;23;20000;-82
2022/05/06 07:53:58;;;;;;;33.42;25.75;;;;;;;12.18;82.04;102580.75;6182061;23;19997;-82
2022/05/06 07:56:25;;;;;;;39.63;27.67;;;;;;;12.19;82.51;102593.16;6157593;23;19993;-80
2022/05/06 07:58:52;;;;;;;35.78;27.10;;;;;;;12.28;81.93;102589.09;6182922;23;20060;-81
2022/05/06 08:04:32;;;;;;;37.70;28.05;;;;;;;12.33;82.12;102589.69;6183125;23;20017;-81
2022/05/06 08:06:52;;;;;;;35.95;26.67;;;;;;;12.43;81.70;102589.19;6182388;23;20044;-81
2022/05/06 08:09:20;;;;;;;35.65;27.75;;;;;;;12.49;80.61;102597.69;6157594;23;19997;-81
2022/05/06 08:11:46;;;;;;;35.35;25.80;;;;;;;12.55;80.47;102599.16;6157498;23;20001;-81
2022/05/06 08:14:12;;;;;;;36.28;26.48;;;;;;;12.51;81.00;102597.63;6183055;23;20009;-80
2022/05/06 08:16:37;;;;;;;35.97;26.95;;;;;;;12.47;80.19;102599.56;6183479;23;20025;-81
2022/05/06 08:19:03;;;;;;;37.53;26.92;;;;;;;12.43;80.57;102587.38;6181829;23;19993;-82
2022/05/06 08:21:29;;;;;;;35.97;26.98;;;;;;;12.42;80.56;102592.78;6183654;23;20004;-81
2022/05/06 08:23:57;;;;;;;35.03;26.80;;;;;;;12.54;80.28;102598.28;6173038;23;20030;-82
2022/05/06 08:26:22;;;;;;;36.50;28.13;;;;;;;12.63;80.59;102596.06;6164102;23;20009;-82
2022/05/06 08:28:48;;;;;;;36.38;27.30;;;;;;;12.74;79.85;102586.50;6162510;23;20092;-82
2022/05/06 08:31:13;;;;;;;39.13;27.42;;;;;;;12.81;79.23;102587.00;6134431;23;20152;-81
2022/05/06 08:33:38;;;;;;;33.40;26.15;;;;;;;12.94;79.38;102587.13;6162874;23;20002;-82
2022/05/06 08:36:05;;;;;;;37.70;27.00;;;;;;;12.99;78.75;102579.72;6112542;23;20014;-82
2022/05/06 08:38:30;;;;;;;38.20;27.45;;;;;;;12.98;78.90;102575.31;6162383;23;20001;-82
2022/05/06 08:40:56;;;;;;;36.42;26.67;;;;;;;13.10;79.17;102574.59;6163856;23;20013;-82
2022/05/06 08:43:22;;;;;;;33.95;26.63;;;;;;;13.20;78.22;102574.03;6137166;23;20009;-81
2022/05/06 08:51:26;;;;;;;34.58;24.90;;;;;;;13.83;76.87;102565.72;6181882;23;20005;-82
2022/05/06 08:53:54;;;;;;;33.72;24.58;;;;;;;13.99;74.62;102562.06;6184407;23;20060;-82
2022/05/06 08:56:19;;;;;;;30.90;25.25;;;;;;;14.10;73.89;102564.91;6158992;23;19994;-82
2022/05/06 08:58:44;;;;;;;32.35;24.48;;;;;;;14.32;74.35;102560.88;6183769;23;20004;-82
2022/05/06 09:01:12;;;;;;;32.00;23.77;;;;;;;14.50;73.23;102564.16;6184240;23;19993;-82
2022/05/06 09:03:38;;;;;;;31.55;23.67;;;;;;;14.65;73.50;102563.16;6158667;23;20241;-83
2022/05/06 09:06:03;;;;;;;30.95;24.17;;;;;;;15.11;73.71;102556.53;6183736;23;20002;-82
2022/05/06 09:08:42;;;;;;;30.35;23.10;;;;;;;15.36;71.11;102553.03;6183927;23;20001;-83
2022/05/06 09:11:08;;;;;;;27.75;22.88;;;;;;;15.65;70.58;102566.16;6184155;23;20000;-83
2022/05/06 09:13:36;;;;;;;29.02;22.80;;;;;;;15.95;69.22;102563.16;6180132;23;20013;-82
2022/05/06 09:16:41;;;;;;;24.85;20.85;;;;;;;16.29;69.15;102560.72;6149624;23;20060;-82
2022/05/06 09:19:36;;;;;;;25.00;19.92;;;;;;;16.63;68.26;102552.81;6167218;23;20032;-81
2022/05/06 09:22:05;;;;;;;23.30;19.60;;;;;;;17.04;64.01;102547.97;6128660;23;20016;-83
2022/05/06 09:24:34;;;;;;;22.98;18.20;;;;;;;17.47;63.08;102550.00;6158566;23;20033;-82
2022/05/06 09:27:05;;;;;;;22.40;18.08;;;;;;;17.98;61.36;102548.69;6133273;23;20411;-83
2022/05/06 09:29:36;;;;;;;22.20;17.83;;;;;;;18.38;59.35;102542.72;6157837;23;20019;-82
2022/05/06 09:32:29;;;;;;;18.67;15.27;;;;;;;18.78;60.18;102537.53;6158734;23;20017;-82
2022/05/06 09:35:09;;;;;;;19.83;15.07;;;;;;;18.97;58.23;102538.72;6157976;23;20012;-83
2022/05/06 09:37:53;;;;;;;19.33;15.02;;;;;;;19.49;59.35;102544.09;6158110;23;20006;-84
2022/05/06 09:40:28;;;;;;;16.75;14.43;;;;;;;19.90;56.43;102528.78;6161366;23;20079;-84
2022/05/06 09:42:58;;;;;;;17.52;14.27;;;;;;;20.17;55.06;102535.38;6179937;23;20068;-84
2022/05/06 09:45:33;;;;;;;18.38;13.05;;;;;;;20.54;54.34;102535.56;6178545;23;20040;-83
2022/05/06 09:48:00;;;;;;;15.80;12.80;;;;;;;20.74;52.70;102531.03;6178714;23;20001;-84
2022/05/06 09:50:38;;;;;;;17.77;12.55;;;;;;;21.13;51.10;102522.00;6178907;23;20009;-83
2022/05/06 09:53:05;;;;;;;16.15;13.15;;;;;;;21.42;50.21;102524.63;6146179;23;20016;-84
2022/05/06 09:55:30;;;;;;;18.05;14.15;;;;;;;21.39;49.06;102527.63;6169860;23;20002;-85
2022/05/06 09:57:59;;;;;;;16.48;12.95;;;;;;;21.83;48.46;102527.88;6159871;23;20005;-85
2022/05/06 10:00:28;;;;;;;15.35;13.48;;;;;;;21.97;48.81;102521.97;6156809;23;20113;-85
2022/05/06 10:02:55;;;;;;;18.45;12.82;;;;;;;22.23;46.87;102525.78;6159794;23;20058;-85
2022/05/06 10:05:21;;;;;;;18.63;12.52;;;;;;;22.53;46.33;102524.56;6133693;23;20065;-85
2022/05/06 10:07:47;;;;;;;12.80;11.43;;;;;;;22.67;45.57;102526.72;6136164;23;20044;-84
2022/05/06 10:10:22;;;;;;;19.02;11.90;;;;;;;23.13;47.85;102526.56;6162168;23;20044;-85
2022/05/06 10:12:53;;;;;;;17.63;11.52;;;;;;;23.31;44.79;102518.38;6166501;23;20040;-84
2022/05/06 10:15:22;;;;;;;11.57;9.90;;;;;;;23.63;43.50;102516.81;6167426;23;20040;-84
2022/05/06 10:17:55;;;;;;;16.92;10.13;;;;;;;24.20;45.07;102511.59;6148248;23;19989;-83
2022/05/06 10:20:41;;;;;;;12.27;9.90;;;;;;;24.44;44.30;102507.22;6181071;23;20017;-84
2022/05/06 10:23:07;;;;;;;9.73;8.73;;;;;;;24.49;40.34;102499.41;6184697;23;20009;-84
2022/05/06 10:25:46;;;;;;;9.30;7.43;;;;;;;24.51;41.24;102504.66;6156686;23;20017;-84
2022/05/06 10:34:11;;;;;;;10.80;7.78;;;;;;;24.99;38.16;102502.13;6184746;23;20008;-83
2022/05/06 10:37:15;;;;;;;9.70;8.43;;;;;;;25.43;42.47;102488.94;6184782;23;19993;-84
2022/05/06 10:39:40;;;;;;;8.43;7.35;;;;;;;25.30;38.07;102492.19;6156231;23;20025;-84
2022/05/06 10:42:15;;;;;;;8.43;7.18;;;;;;;25.56;37.08;102487.50;6183030;23;20006;-84
2022/05/06 10:44:50;;;;;;;8.68;7.35;;;;;;;25.63;36.79;102483.03;6184573;23;20065;-84
2022/05/06 10:47:16;;;;;;;9.30;7.43;;;;;;;25.82;37.32;102481.75;6183778;23;19994;-84
2022/05/06 10:49:43;;;;;;;8.20;7.13;;;;;;;25.87;37.08;102478.50;6184495;23;20020;-84
2022/05/06 10:52:23;;;;;;;6.63;6.03;;;;;;;26.32;37.76;102468.69;6157692;23;20014;-84
2022/05/06 10:55:00;;;;;;;6.50;5.90;;;;;;;26.37;37.41;102474.44;6185089;23;19994;-84
2022/05/06 10:57:45;;;;;;;8.48;6.05;;;;;;;26.50;36.71;102462.91;6183197;23;20021;-84
2022/05/06 11:00:11;;;;;;;7.43;5.72;;;;;;;26.51;33.46;102470.91;6182436;23;20025;-84
2022/05/06 11:02:38;;;;;;;6.80;6.20;;;;;;;26.68;34.03;102466.19;6184916;23;20010;-84
2022/05/06 11:05:06;;;;;;;6.45;5.85;;;;;;;26.93;35.03;102471.38;6160138;23;19996;-84
2022/05/06 11:07:34;;;;;;;7.90;7.00;;;;;;;26.82;33.71;102467.22;6185120;23;20025;-83
2022/05/06 11:10:08;;;;;;;13.85;7.72;;;;;;;26.85;34.84;102472.31;6183631;23;19997;-83
2022/05/06 11:12:53;;;;;;;6.93;6.18;;;;;;;27.26;36.06;102468.25;6183183;23;20009;-85
2022/05/06 11:15:23;;;;;;;6.32;5.35;;;;;;;27.26;33.66;102460.06;6184635;23;20012;-84
2022/05/06 11:17:50;;;;;;;5.90;4.90;;;;;;;27.29;33.33;102459.72;6179256;23;20014;-82
2022/05/06 11:20:16;;;;;;;6.35;5.75;;;;;;;27.34;31.29;102451.81;6180589;23;20014;-83
2022/05/06 11:22:59;;;;;;;9.45;6.32;;;;;;;27.60;33.92;102448.56;6183623;23;20048;-81
2022/05/06 11:25:41;;;;;;;6.95;6.10;;;;;;;27.36;31.27;102448.91;6183549;23;20040;-81
2022/05/06 11:28:15;;;;;;;8.10;7.30;;;;;;;27.64;33.28;102455.31;6176273;23;20308;-81
2022/05/06 11:30:45;;;;;;;9.10;7.90;;;;;;;27.34;32.90;102449.09;6174567;23;20021;-81
2022/05/06 11:33:24;;;;;;;8.82;7.55;;;;;;;27.37;33.81;102440.53;6157350;23;19991;-82
2022/05/06 11:36:01;;;;;;;8.60;7.28;;;;;;;27.43;32.96;102458.00;6183054;23;20037;-82
2022/05/06 11:38:32;;;;;;;7.05;6.35;;;;;;;27.43;32.33;102455.28;6150656;23;20021;-82
2022/05/06 11:41:24;;;;;;;7.82;5.65;;;;;;;27.88;32.63;102443.22;6174329;23;20032;-81
2022/05/06 11:44:06;;;;;;;7.40;6.13;;;;;;;27.64;32.66;102440.84;6174089;23;20006;-82
2022/05/06 11:49:29;;;;;;;7.40;6.25;;;;;;;27.77;32.44;102432.78;6177741;23;20076;-83
2022/05/06 11:51:58;;;;;;;7.40;6.13;;;;;;;28.00;31.91;102432.66;6177561;23;20057;-83
2022/05/06 11:54:24;;;;;;;5.70;5.10;;;;;;;27.93;29.78;102431.75;6154079;23;19994;-82